createdAt,value
2022-09-14T00:00:24.948Z,41.97
2022-09-14T00:02:26.730Z,41.73
2022-09-14T00:04:28.579Z,41.87
2022-09-14T00:06:30.377Z,41.72
2022-09-14T00:08:32.216Z,41.72
2022-09-14T00:10:33.935Z,41.97
2022-09-14T00:12:35.662Z,42.30
2022-09-14T00:14:37.844Z,41.65
2022-09-14T00:16:40.536Z,41.96
2022-09-14T00:18:42.390Z,41.90
2022-09-14T00:20:44.146Z,42.03
2022-09-14T00:22:45.857Z,41.81
2022-09-14T00:24:47.577Z,41.71
2022-09-14T00:26:49.586Z,41.93
2022-09-14T00:28:56.975Z,41.95
2022-09-14T00:30:58.644Z,41.91
2022-09-14T00:33:00.414Z,41.87
2022-09-14T00:35:02.117Z,41.66
2022-09-14T00:37:03.862Z,42.01
2022-09-14T00:39:05.508Z,41.76
2022-09-14T00:41:13.163Z,41.63
2022-09-14T00:43:15.233Z,42.07
2022-09-14T00:45:19.335Z,42.08
2022-09-14T00:47:21.011Z,41.71
2022-09-14T00:49:39.639Z,41.80
2022-09-14T00:52:03.467Z,41.95
2022-09-14T00:54:05.276Z,42.22
2022-09-14T00:56:07.131Z,42.37
2022-09-14T00:58:08.831Z,42.26
2022-09-14T01:00:11.280Z,42.04
2022-09-14T01:02:13.267Z,42.00
2022-09-14T01:04:15.015Z,41.83
2022-09-14T01:06:27.076Z,41.77
2022-09-14T01:08:51.185Z,42.17
2022-09-14T01:11:11.388Z,41.83
2022-09-14T01:13:32.498Z,42.52
2022-09-14T01:15:53.251Z,42.01
2022-09-14T01:18:13.225Z,42.18
2022-09-14T01:20:27.355Z,42.15
2022-09-14T01:22:41.071Z,42.49
2022-09-14T01:24:54.463Z,42.38
2022-09-14T01:26:56.056Z,42.07
2022-09-14T01:29:12.581Z,42.45
2022-09-14T01:31:18.822Z,42.29
2022-09-14T01:33:27.369Z,42.74
2022-09-14T01:35:38.187Z,42.53
2022-09-14T01:37:49.825Z,42.70
2022-09-14T01:40:31.990Z,42.22
2022-09-14T01:42:33.754Z,42.61
2022-09-14T01:44:37.010Z,42.48
2022-09-14T01:46:41.394Z,42.43
2022-09-14T01:48:44.199Z,42.41
2022-09-14T01:50:54.602Z,42.52
2022-09-14T01:53:02.160Z,42.42
2022-09-14T01:55:07.737Z,42.51
2022-09-14T01:57:16.845Z,42.40
2022-09-14T01:59:32.048Z,42.42
2022-09-14T02:01:58.099Z,42.85
2022-09-14T02:04:02.321Z,42.99
2022-09-14T02:06:15.720Z,42.41
2022-09-14T02:08:17.452Z,42.54
2022-09-14T02:10:19.332Z,42.49
2022-09-14T02:12:21.050Z,42.74
2022-09-14T02:14:23.024Z,42.66
2022-09-14T02:16:24.850Z,42.46
2022-09-14T02:18:26.660Z,42.80
2022-09-14T02:20:44.150Z,42.85
2022-09-14T02:22:45.830Z,42.56
2022-09-14T02:24:48.099Z,42.79
2022-09-14T02:26:49.857Z,42.65
2022-09-14T02:28:51.570Z,42.47
2022-09-14T02:31:15.975Z,42.81
2022-09-14T02:33:37.522Z,42.69
2022-09-14T02:35:50.100Z,42.79
2022-09-14T02:38:34.571Z,42.91
2022-09-14T02:40:58.980Z,42.56
2022-09-14T02:43:03.134Z,42.86
2022-09-14T02:45:26.591Z,42.69
2022-09-14T02:47:34.536Z,42.66
2022-09-14T02:49:54.278Z,43.04
2022-09-14T02:51:58.477Z,43.05
2022-09-14T02:54:04.116Z,42.76
2022-09-14T02:56:07.619Z,42.86
2022-09-14T02:58:11.001Z,42.89
2022-09-14T03:00:13.273Z,42.53
2022-09-14T03:02:15.182Z,42.74
2022-09-14T03:04:17.012Z,42.56
2022-09-14T03:06:18.697Z,42.90
2022-09-14T03:08:20.503Z,42.44
2022-09-14T03:10:22.196Z,42.90
2022-09-14T03:12:23.948Z,43.08
2022-09-14T03:14:25.635Z,43.07
2022-09-14T03:16:27.431Z,42.97
2022-09-14T03:18:29.191Z,43.11
2022-09-14T03:20:32.217Z,43.13
2022-09-14T03:22:33.921Z,42.99
2022-09-14T03:24:35.611Z,42.89
2022-09-14T03:26:37.305Z,43.14
2022-09-14T03:28:39.118Z,42.84
2022-09-14T03:30:40.865Z,43.01
2022-09-14T03:32:42.692Z,42.72
2022-09-14T03:34:44.437Z,43.16
2022-09-14T03:36:46.126Z,43.01
2022-09-14T03:38:49.335Z,42.96
2022-09-14T03:40:50.999Z,43.12
2022-09-14T03:42:52.860Z,43.12
2022-09-14T03:44:54.529Z,42.82
2022-09-14T03:46:56.349Z,42.90
2022-09-14T03:48:58.026Z,43.06
2022-09-14T03:51:06.610Z,42.95
2022-09-14T03:53:08.343Z,42.93
2022-09-14T03:55:10.244Z,42.86
2022-09-14T03:57:11.976Z,43.19
2022-09-14T03:59:13.686Z,43.04
2022-09-14T04:01:17.190Z,43.11
2022-09-14T04:03:19.006Z,43.63
2022-09-14T04:05:21.921Z,43.45
2022-09-14T04:07:23.830Z,43.44
2022-09-14T04:09:25.518Z,43.47
2022-09-14T04:11:27.216Z,43.30
2022-09-14T04:13:28.926Z,43.58
2022-09-14T04:15:30.592Z,43.35
2022-09-14T04:17:32.313Z,43.71
2022-09-14T04:19:34.027Z,44.12
2022-09-14T04:21:36.060Z,44.12
2022-09-14T04:23:56.612Z,43.47
2022-09-14T04:25:59.540Z,43.86
2022-09-14T04:28:19.680Z,44.33
2022-09-14T04:30:21.743Z,43.93
2022-09-14T04:32:23.453Z,43.73
2022-09-14T04:34:25.347Z,44.06
2022-09-14T04:36:27.678Z,44.36
2022-09-14T04:38:29.882Z,44.96
2022-09-14T04:40:31.608Z,45.01
2022-09-14T04:42:33.383Z,44.68
2022-09-14T04:44:35.071Z,44.92
2022-09-14T04:46:39.189Z,44.85
2022-09-14T04:48:43.025Z,44.70
2022-09-14T04:50:44.774Z,44.65
2022-09-14T04:52:46.469Z,44.67
2022-09-14T04:54:48.195Z,44.54
2022-09-14T04:56:49.884Z,44.61
2022-09-14T04:58:53.412Z,44.62
2022-09-14T05:01:01.016Z,44.56
2022-09-14T05:03:04.677Z,44.75
2022-09-14T05:05:06.689Z,44.70
2022-09-14T05:07:08.378Z,44.63
2022-09-14T05:09:15.359Z,44.71
2022-09-14T05:11:19.069Z,44.70
2022-09-14T05:13:20.809Z,44.48
2022-09-14T05:15:22.567Z,44.91
2022-09-14T05:17:24.299Z,44.68
2022-09-14T05:19:25.954Z,44.75
2022-09-14T05:21:28.114Z,44.81
2022-09-14T05:23:29.804Z,44.81
2022-09-14T05:25:31.455Z,44.55
2022-09-14T05:27:33.133Z,44.41
2022-09-14T05:29:34.865Z,44.59
2022-09-14T05:31:36.681Z,44.53
2022-09-14T05:33:38.401Z,44.47
2022-09-14T05:35:40.159Z,44.69
2022-09-14T05:37:41.844Z,44.78
2022-09-14T05:39:43.610Z,44.86
2022-09-14T05:41:45.375Z,44.51
2022-09-14T05:43:47.046Z,44.33
2022-09-14T05:45:49.580Z,44.85
2022-09-14T05:47:51.299Z,44.56
2022-09-14T05:49:53.032Z,44.84
2022-09-14T05:51:54.785Z,44.60
2022-09-14T05:53:57.453Z,44.98
2022-09-14T05:56:02.395Z,44.78
2022-09-14T05:58:04.086Z,44.58
2022-09-14T06:00:06.168Z,44.68
2022-09-14T06:02:08.941Z,44.70
2022-09-14T06:04:10.636Z,44.63
2022-09-14T06:06:13.423Z,45.07
2022-09-14T06:08:15.091Z,44.86
2022-09-14T06:10:16.856Z,45.10
2022-09-14T06:12:18.602Z,44.71
2022-09-14T06:14:20.410Z,44.84
2022-09-14T06:16:23.285Z,45.17
2022-09-14T06:18:24.986Z,44.66
2022-09-14T06:20:26.686Z,44.67
2022-09-14T06:22:28.402Z,44.97
2022-09-14T06:24:30.035Z,44.96
2022-09-14T06:26:31.858Z,44.92
2022-09-14T06:28:33.960Z,44.79
2022-09-14T06:30:35.778Z,44.78
2022-09-14T06:32:40.582Z,44.80
2022-09-14T06:34:42.279Z,44.82
2022-09-14T06:36:44.016Z,44.65
2022-09-14T06:38:46.036Z,44.76
2022-09-14T06:40:54.244Z,45.14
2022-09-14T06:42:55.930Z,44.91
2022-09-14T06:44:57.593Z,45.07
2022-09-14T06:46:59.314Z,45.42
2022-09-14T06:49:02.252Z,45.02
2022-09-14T06:51:15.482Z,44.94
2022-09-14T06:53:17.164Z,45.03
2022-09-14T06:55:18.962Z,45.03
2022-09-14T06:57:20.634Z,44.74
2022-09-14T06:59:22.331Z,45.04
2022-09-14T07:01:24.014Z,45.05
2022-09-14T07:03:25.682Z,45.10
2022-09-14T07:05:27.428Z,45.20
2022-09-14T07:07:29.086Z,45.19
2022-09-14T07:09:30.777Z,45.22
2022-09-14T07:11:32.689Z,44.93
2022-09-14T07:13:34.596Z,44.78
2022-09-14T07:15:36.308Z,44.88
2022-09-14T07:17:38.054Z,45.19
2022-09-14T07:19:39.723Z,45.02
2022-09-14T07:21:41.571Z,44.84
2022-09-14T07:23:44.194Z,45.29
2022-09-14T07:25:45.860Z,45.07
2022-09-14T07:27:47.554Z,44.96
2022-09-14T07:29:49.226Z,45.04
2022-09-14T07:31:52.520Z,44.99
2022-09-14T07:33:55.385Z,45.26
2022-09-14T07:36:08.723Z,45.25
2022-09-14T07:38:10.417Z,45.03
2022-09-14T07:40:12.258Z,45.31
2022-09-14T07:42:13.983Z,45.13
2022-09-14T07:44:16.517Z,45.43
2022-09-14T07:46:18.565Z,45.29
2022-09-14T07:48:20.328Z,45.05
2022-09-14T07:50:22.181Z,44.96
2022-09-14T07:52:23.963Z,45.35
2022-09-14T07:54:25.701Z,45.15
2022-09-14T07:56:27.659Z,44.92
2022-09-14T07:58:29.530Z,45.21
2022-09-14T08:00:31.221Z,45.37
2022-09-14T08:02:33.002Z,45.39
2022-09-14T08:04:35.562Z,45.29
2022-09-14T08:06:37.232Z,45.34
2022-09-14T08:08:40.179Z,45.38
2022-09-14T08:10:41.851Z,45.48
2022-09-14T08:12:43.588Z,45.43
2022-09-14T08:14:45.349Z,45.32
2022-09-14T08:16:47.132Z,45.30
2022-09-14T08:18:52.467Z,45.57
2022-09-14T08:20:54.176Z,45.57
2022-09-14T08:22:55.864Z,45.20
2022-09-14T08:24:57.705Z,45.65
2022-09-14T08:26:59.382Z,45.68
2022-09-14T08:29:01.048Z,45.67
2022-09-14T08:31:11.271Z,45.52
2022-09-14T08:33:13.046Z,45.35
2022-09-14T08:35:14.769Z,45.69
2022-09-14T08:37:16.399Z,45.72
2022-09-14T08:39:18.084Z,45.93
2022-09-14T08:41:29.411Z,45.74
2022-09-14T08:43:31.194Z,45.80
2022-09-14T08:45:32.884Z,45.98
2022-09-14T08:47:34.991Z,45.81
2022-09-14T08:49:48.752Z,46.21
2022-09-14T08:51:50.504Z,46.20
2022-09-14T08:53:52.179Z,46.01
2022-09-14T08:55:56.721Z,46.08
2022-09-14T08:58:05.052Z,45.85
2022-09-14T09:00:14.562Z,46.35
2022-09-14T09:02:25.762Z,46.11
2022-09-14T09:04:49.017Z,46.46
2022-09-14T09:06:56.526Z,46.29
2022-09-14T09:09:06.595Z,46.73
2022-09-14T09:11:12.904Z,46.42
2022-09-14T09:13:17.179Z,46.11
2022-09-14T09:15:18.788Z,46.58
2022-09-14T09:17:20.383Z,46.40
2022-09-14T09:19:31.182Z,46.38
2022-09-14T09:21:35.867Z,46.81
2022-09-14T09:23:37.572Z,46.68
2022-09-14T09:25:47.255Z,46.64
2022-09-14T09:27:50.295Z,46.41
2022-09-14T09:29:52.038Z,46.60
2022-09-14T09:34:16.927Z,46.59
2022-09-14T09:36:18.638Z,46.88
2022-09-14T09:38:22.076Z,46.74
2022-09-14T09:40:35.856Z,46.72
2022-09-14T09:42:37.557Z,46.67
2022-09-14T09:45:01.860Z,46.81
2022-09-14T09:47:04.791Z,47.08
2022-09-14T09:49:36.093Z,46.73
2022-09-14T09:51:37.767Z,46.77
2022-09-14T09:54:16.381Z,46.71
2022-09-14T09:56:29.129Z,46.76
2022-09-14T09:58:32.266Z,47.03
2022-09-14T10:00:34.015Z,46.95
2022-09-14T10:02:35.820Z,46.78
2022-09-14T10:04:37.717Z,46.76
2022-09-14T10:06:47.155Z,46.62
2022-09-14T10:08:48.851Z,46.75
2022-09-14T10:10:50.604Z,46.81
2022-09-14T10:12:53.979Z,47.25
2022-09-14T10:15:17.372Z,46.82
2022-09-14T10:17:23.195Z,46.84
2022-09-14T10:19:25.094Z,46.69
2022-09-14T10:21:26.753Z,46.89
2022-09-14T10:23:30.102Z,46.90
2022-09-14T10:25:31.850Z,47.17
2022-09-14T10:27:49.161Z,47.19
2022-09-14T10:29:50.850Z,47.30
2022-09-14T10:31:52.498Z,46.90
2022-09-14T10:33:55.499Z,46.95
2022-09-14T10:36:01.114Z,47.19
2022-09-14T10:38:20.409Z,47.41
2022-09-14T10:40:27.877Z,47.19
2022-09-14T10:42:49.735Z,47.26
2022-09-14T10:45:14.676Z,47.38
2022-09-14T10:47:16.245Z,47.46
2022-09-14T10:49:56.524Z,47.51
2022-09-14T10:52:23.830Z,47.12
2022-09-14T10:54:39.179Z,47.33
2022-09-14T10:56:40.714Z,47.72
2022-09-14T10:59:14.558Z,47.68
2022-09-14T11:01:34.586Z,47.73
2022-09-14T11:03:53.315Z,47.11
2022-09-14T11:06:07.502Z,47.79
2022-09-14T11:08:12.081Z,47.65
2022-09-14T11:10:22.139Z,48.02
2022-09-14T11:12:36.388Z,48.00
2022-09-14T11:15:02.504Z,47.83
2022-09-14T11:17:39.278Z,47.85
2022-09-14T11:19:59.167Z,47.96
2022-09-14T11:22:15.664Z,48.01
2022-09-14T11:24:49.454Z,48.09
2022-09-14T11:27:03.849Z,48.20
2022-09-14T11:29:14.655Z,48.06
2022-09-14T11:31:26.341Z,47.93
2022-09-14T11:33:39.384Z,48.25
2022-09-14T11:35:46.342Z,48.12
2022-09-14T11:37:55.063Z,48.03
2022-09-14T11:40:26.133Z,48.25
2022-09-14T11:42:37.440Z,48.08
2022-09-14T11:44:40.401Z,48.28
2022-09-14T11:47:00.638Z,48.32
2022-09-14T11:49:18.852Z,48.22
2022-09-14T11:51:33.249Z,48.15
2022-09-14T11:53:35.004Z,48.39
2022-09-14T11:55:36.979Z,48.23
2022-09-14T11:57:38.721Z,48.13
2022-09-14T11:59:40.380Z,48.29
2022-09-14T12:01:42.058Z,48.49
2022-09-14T12:03:59.105Z,48.44
2022-09-14T12:06:01.120Z,48.25
2022-09-14T12:08:05.428Z,48.59
2022-09-14T12:10:16.122Z,48.64
2022-09-14T12:12:31.648Z,48.65
2022-09-14T12:14:36.485Z,48.77
2022-09-14T12:17:39.909Z,48.49
2022-09-14T12:19:38.103Z,48.24
2022-09-14T12:21:39.810Z,48.55
2022-09-14T12:23:43.728Z,48.37
2022-09-14T12:26:06.972Z,48.79
2022-09-14T12:28:36.597Z,48.48
2022-09-14T12:30:41.298Z,48.62
2022-09-14T12:32:43.619Z,48.52
2022-09-14T12:34:45.346Z,48.51
2022-09-14T12:36:46.972Z,48.80
2022-09-14T12:38:51.549Z,48.44
2022-09-14T12:40:53.265Z,48.62
2022-09-14T12:42:54.904Z,48.55
2022-09-14T12:44:56.641Z,48.54
2022-09-14T12:46:58.382Z,48.47
2022-09-14T12:49:01.945Z,48.68
2022-09-14T12:51:03.998Z,48.63
2022-09-14T12:53:25.779Z,48.74
2022-09-14T12:55:39.404Z,48.88
2022-09-14T12:57:51.209Z,48.53
2022-09-14T13:00:00.963Z,48.95
2022-09-14T13:02:20.886Z,48.85
2022-09-14T13:04:40.996Z,48.83
2022-09-14T13:06:46.381Z,48.60
2022-09-14T13:08:55.660Z,48.85
2022-09-14T13:10:57.394Z,48.69
2022-09-14T13:13:03.219Z,48.84
2022-09-14T13:15:13.417Z,48.86
2022-09-14T13:17:15.755Z,48.98
2022-09-14T13:19:23.567Z,48.99
2022-09-14T13:21:25.246Z,49.03
2022-09-14T13:23:35.914Z,48.82
2022-09-14T13:25:38.017Z,49.10
2022-09-14T13:27:39.781Z,48.71
2022-09-14T13:29:41.521Z,49.13
2022-09-14T13:31:44.815Z,48.83
2022-09-14T13:33:53.323Z,49.07
2022-09-14T13:36:04.118Z,49.07
2022-09-14T13:38:10.913Z,49.08
2022-09-14T13:40:12.822Z,49.20
2022-09-14T13:42:14.626Z,49.07
2022-09-14T13:44:16.465Z,49.17
2022-09-14T13:46:20.391Z,49.24
2022-09-14T13:48:22.578Z,49.25
2022-09-14T13:50:24.467Z,49.05
2022-09-14T13:52:43.502Z,48.98
2022-09-14T13:55:11.733Z,49.54
2022-09-14T13:57:22.538Z,49.46
2022-09-14T13:59:24.269Z,48.66
2022-09-14T14:01:29.355Z,49.01
2022-09-14T14:03:41.127Z,48.31
2022-09-14T14:05:43.414Z,48.82
2022-09-14T14:07:45.497Z,48.68
2022-09-14T14:09:55.370Z,48.81
2022-09-14T14:11:57.212Z,49.40
2022-09-14T14:14:17.521Z,49.35
2022-09-14T14:16:24.758Z,48.90
2022-09-14T14:18:31.589Z,48.96
2022-09-14T14:20:35.502Z,48.71
2022-09-14T14:22:37.434Z,48.52
2022-09-14T14:25:02.120Z,48.21
2022-09-14T14:27:00.811Z,47.59
2022-09-14T14:29:09.329Z,48.38
2022-09-14T14:31:15.799Z,47.42
2022-09-14T14:33:18.423Z,47.63
2022-09-14T14:35:22.963Z,47.54
2022-09-14T14:37:25.124Z,48.71
2022-09-14T14:39:27.082Z,47.55
2022-09-14T14:41:28.883Z,47.55
2022-09-14T14:43:33.785Z,46.88
2022-09-14T14:45:36.637Z,46.70
2022-09-14T14:47:39.711Z,46.29
2022-09-14T14:49:41.668Z,46.43
2022-09-14T14:51:43.423Z,46.21
2022-09-14T14:53:45.586Z,45.92
2022-09-14T14:55:47.563Z,46.37
2022-09-14T14:57:50.198Z,46.60
2022-09-14T14:59:52.069Z,47.06
2022-09-14T15:01:53.929Z,46.63
2022-09-14T15:03:56.653Z,46.39
2022-09-14T15:05:58.610Z,46.19
2022-09-14T15:08:00.769Z,46.51
2022-09-14T15:10:03.332Z,46.02
2022-09-14T15:12:06.502Z,46.11
2022-09-14T15:14:19.027Z,47.10
2022-09-14T15:16:21.119Z,45.88
2022-09-14T15:18:23.403Z,46.43
2022-09-14T15:20:25.357Z,46.19
2022-09-14T15:22:27.403Z,46.32
2022-09-14T15:24:29.954Z,46.03
2022-09-14T15:26:31.875Z,45.99
2022-09-14T15:28:35.266Z,45.84
2022-09-14T15:30:38.732Z,45.83
2022-09-14T15:32:40.804Z,46.18
2022-09-14T15:34:45.971Z,46.04
2022-09-14T15:36:49.741Z,46.79
2022-09-14T15:38:51.675Z,46.48
2022-09-14T15:40:53.348Z,46.46
2022-09-14T15:42:55.419Z,46.49
2022-09-14T15:44:57.344Z,46.31
2022-09-14T15:46:59.321Z,46.14
2022-09-14T15:49:08.484Z,46.36
2022-09-14T15:51:10.968Z,46.66
2022-09-14T15:53:14.112Z,46.91
2022-09-14T15:55:52.430Z,46.63
2022-09-14T15:57:54.289Z,47.37
2022-09-14T15:59:56.330Z,47.53
2022-09-14T16:01:58.273Z,47.01
2022-09-14T16:04:05.747Z,46.63
2022-09-14T16:06:11.064Z,46.62
2022-09-14T16:08:13.097Z,46.54
2022-09-14T16:10:15.611Z,45.24
2022-09-14T16:12:19.178Z,45.28
2022-09-14T16:14:21.349Z,45.37
2022-09-14T16:16:23.531Z,45.77
2022-09-14T16:18:25.943Z,45.38
2022-09-14T16:20:27.841Z,45.34
2022-09-14T16:22:30.768Z,45.21
2022-09-14T16:24:33.318Z,45.13
2022-09-14T16:26:36.753Z,45.29
2022-09-14T16:28:38.917Z,44.52
2022-09-14T16:30:41.093Z,43.07
2022-09-14T16:32:42.985Z,42.41
2022-09-14T16:34:44.989Z,42.37
2022-09-14T16:36:46.915Z,42.02
2022-09-14T16:38:49.303Z,43.34
2022-09-14T16:40:51.885Z,44.41
2022-09-14T16:42:54.081Z,44.13
2022-09-14T16:44:56.126Z,44.87
2022-09-14T16:46:58.961Z,44.31
2022-09-14T16:49:00.774Z,42.56
2022-09-14T16:51:02.658Z,42.37
2022-09-14T16:53:04.635Z,42.48
2022-09-14T16:55:07.120Z,41.89
2022-09-14T16:57:08.888Z,42.62
2022-09-14T16:59:11.155Z,41.87
2022-09-14T17:01:20.186Z,41.63
2022-09-14T17:03:22.266Z,41.63
2022-09-14T17:05:24.095Z,42.12
2022-09-14T17:07:26.138Z,41.75
2022-09-14T17:09:29.408Z,41.40
2022-09-14T17:11:32.635Z,41.56
2022-09-14T17:13:35.094Z,42.40
2022-09-14T17:15:37.803Z,42.35
2022-09-14T17:17:43.382Z,42.80
2022-09-14T17:19:45.774Z,42.02
2022-09-14T17:21:49.832Z,41.95
2022-09-14T17:23:52.935Z,41.73
2022-09-14T17:25:55.063Z,42.71
2022-09-14T17:27:57.474Z,42.57
2022-09-14T17:29:59.423Z,42.05
2022-09-14T17:32:01.499Z,42.02
2022-09-14T17:34:04.613Z,42.41
2022-09-14T17:36:08.063Z,42.04
2022-09-14T17:38:10.777Z,41.86
2022-09-14T17:40:12.799Z,41.60
2022-09-14T17:42:15.039Z,42.08
2022-09-14T17:44:16.945Z,41.73
2022-09-14T17:46:19.014Z,41.85
2022-09-14T17:48:21.376Z,41.77
2022-09-14T17:50:23.325Z,41.48
2022-09-14T17:52:25.053Z,41.71
2022-09-14T17:54:27.285Z,44.04
2022-09-14T17:56:29.594Z,45.45
2022-09-14T17:58:31.426Z,46.01
2022-09-14T18:00:34.114Z,46.36
2022-09-14T18:02:35.999Z,46.66
2022-09-14T18:04:38.076Z,46.88
2022-09-14T18:06:43.176Z,47.16
2022-09-14T18:08:45.205Z,47.21
2022-09-14T18:10:46.986Z,46.87
2022-09-14T18:12:49.371Z,47.56
2022-09-14T18:14:51.163Z,47.58
2022-09-14T18:16:53.075Z,47.71
2022-09-14T18:18:55.516Z,47.79
2022-09-14T18:20:59.321Z,48.18
2022-09-14T18:23:01.152Z,47.65
2022-09-14T18:25:04.357Z,47.22
2022-09-14T18:27:06.298Z,47.72
2022-09-14T18:29:08.585Z,48.65
2022-09-14T18:31:12.239Z,48.71
2022-09-14T18:33:14.285Z,48.65
2022-09-14T18:35:16.217Z,48.67
2022-09-14T18:37:18.267Z,48.53
2022-09-14T18:39:20.084Z,48.51
2022-09-14T18:41:21.766Z,48.70
2022-09-14T18:43:23.580Z,48.96
2022-09-14T18:45:25.391Z,48.63
2022-09-14T18:47:27.219Z,49.23
2022-09-14T18:49:29.062Z,49.55
2022-09-14T18:51:31.407Z,49.39
2022-09-14T18:53:33.581Z,49.07
2022-09-14T18:55:35.309Z,49.06
2022-09-14T18:57:37.102Z,49.63
2022-09-14T18:59:38.899Z,49.59
2022-09-14T19:01:40.761Z,49.33
2022-09-14T19:03:42.831Z,49.95
2022-09-14T19:05:44.897Z,49.66
2022-09-14T19:07:46.717Z,49.95
2022-09-14T19:09:48.391Z,49.97
2022-09-14T19:11:50.079Z,49.58
2022-09-14T19:14:01.814Z,50.04
2022-09-14T19:16:11.031Z,49.85
2022-09-14T19:18:12.823Z,50.01
2022-09-14T19:20:14.630Z,49.88
2022-09-14T19:22:16.306Z,49.96
2022-09-14T19:24:18.014Z,50.24
2022-09-14T19:26:20.000Z,50.19
2022-09-14T19:28:21.667Z,50.29
2022-09-14T19:30:23.429Z,50.02
2022-09-14T19:32:25.218Z,49.64
2022-09-14T19:34:27.432Z,49.98
2022-09-14T19:36:29.712Z,50.02
2022-09-14T19:38:31.513Z,50.05
2022-09-14T19:40:33.284Z,49.95
2022-09-14T19:42:35.094Z,49.91
2022-09-14T19:44:36.789Z,49.84
2022-09-14T19:46:38.720Z,50.09
2022-09-14T19:48:40.662Z,49.89
2022-09-14T19:50:42.383Z,50.06
2022-09-14T19:52:44.137Z,50.04
2022-09-14T19:54:45.814Z,49.66
2022-09-14T19:56:47.733Z,49.74
2022-09-14T19:58:50.550Z,50.02
2022-09-14T20:00:53.840Z,50.20
2022-09-14T20:02:55.610Z,49.73
2022-09-14T20:04:57.433Z,49.95
2022-09-14T20:06:59.144Z,49.75
2022-09-14T20:09:05.870Z,50.00
2022-09-14T20:11:19.074Z,49.80
2022-09-14T20:13:21.655Z,50.10
2022-09-14T20:15:23.304Z,49.71
2022-09-14T20:17:24.941Z,50.12
2022-09-14T20:19:29.828Z,49.79
2022-09-14T20:21:31.552Z,50.04
2022-09-14T20:23:33.249Z,50.17
2022-09-14T20:25:34.994Z,50.41
2022-09-14T20:27:36.849Z,50.57
2022-09-14T20:29:38.585Z,50.45
2022-09-14T20:31:40.304Z,51.01
2022-09-14T20:33:42.087Z,50.78
2022-09-14T20:35:43.941Z,50.66
2022-09-14T20:37:45.676Z,50.84
2022-09-14T20:39:47.672Z,50.80
2022-09-14T20:41:49.370Z,50.44
2022-09-14T20:43:52.000Z,50.58
2022-09-14T20:46:10.793Z,50.58
2022-09-14T20:48:12.510Z,50.39
2022-09-14T20:50:14.369Z,50.52
2022-09-14T20:52:16.151Z,50.26
2022-09-14T20:54:19.443Z,50.11
2022-09-14T20:56:23.056Z,50.64
2022-09-14T20:58:24.702Z,50.39
2022-09-14T21:00:26.473Z,50.58
2022-09-14T21:02:28.272Z,50.95
2022-09-14T21:04:29.996Z,51.25
2022-09-14T21:06:31.708Z,51.20
2022-09-14T21:08:34.349Z,50.69
2022-09-14T21:10:38.191Z,50.91
2022-09-14T21:12:39.904Z,50.98
2022-09-14T21:14:41.572Z,51.49
2022-09-14T21:16:45.739Z,51.16
2022-09-14T21:18:48.502Z,50.80
2022-09-14T21:20:50.166Z,50.99
2022-09-14T21:22:51.862Z,50.91
2022-09-14T21:24:53.538Z,51.03
2022-09-14T21:26:55.920Z,51.13
2022-09-14T21:29:00.490Z,51.19
2022-09-14T21:31:21.165Z,50.95
2022-09-14T21:33:22.979Z,50.83
2022-09-14T21:35:24.735Z,50.55
2022-09-14T21:37:26.601Z,50.37
2022-09-14T21:39:28.336Z,50.71
2022-09-14T21:41:30.529Z,51.08
2022-09-14T21:43:32.204Z,51.00
2022-09-14T21:45:33.880Z,50.84
2022-09-14T21:47:35.653Z,50.96
2022-09-14T21:49:37.333Z,51.05
2022-09-14T21:51:39.067Z,51.14
2022-09-14T21:53:40.739Z,51.11
2022-09-14T21:55:42.583Z,51.22
2022-09-14T21:57:46.849Z,50.61
2022-09-14T21:59:48.530Z,50.87
2022-09-14T22:01:50.407Z,50.91
2022-09-14T22:03:53.009Z,50.71
2022-09-14T22:05:58.918Z,50.64
2022-09-14T22:08:00.657Z,49.81
2022-09-14T22:10:02.385Z,50.05
2022-09-14T22:12:04.096Z,50.24
2022-09-14T22:14:10.312Z,50.50
2022-09-14T22:16:14.879Z,50.75
2022-09-14T22:18:16.696Z,51.36
2022-09-14T22:20:18.438Z,50.84
2022-09-14T22:22:20.159Z,50.76
2022-09-14T22:24:24.487Z,50.98
2022-09-14T22:26:27.845Z,50.51
2022-09-14T22:28:29.538Z,50.39
2022-09-14T22:30:31.226Z,50.76
2022-09-14T22:32:32.911Z,50.79
2022-09-14T22:34:34.725Z,50.51
2022-09-14T22:36:36.517Z,50.00
2022-09-14T22:38:38.262Z,50.39
2022-09-14T22:40:39.972Z,50.54
2022-09-14T22:42:41.685Z,50.28
2022-09-14T22:44:43.509Z,50.36
2022-09-14T22:46:45.169Z,50.47
2022-09-14T22:48:46.928Z,50.21
2022-09-14T22:50:49.988Z,50.38
2022-09-14T22:52:51.774Z,50.56
2022-09-14T22:54:53.493Z,50.23
2022-09-14T22:56:55.214Z,50.29
2022-09-14T22:58:57.273Z,50.45
2022-09-14T23:01:04.719Z,50.00
2022-09-14T23:03:06.802Z,50.20
2022-09-14T23:05:08.828Z,50.50
2022-09-14T23:07:10.577Z,50.23
2022-09-14T23:09:15.640Z,50.17
2022-09-14T23:11:17.369Z,50.25
2022-09-14T23:13:19.137Z,50.24
2022-09-14T23:15:20.856Z,50.55
2022-09-14T23:17:22.538Z,50.08
2022-09-14T23:19:24.250Z,50.43
2022-09-14T23:21:26.185Z,50.06
2022-09-14T23:23:27.829Z,50.27
2022-09-14T23:25:29.508Z,50.01
2022-09-14T23:27:31.357Z,50.23
2022-09-14T23:29:33.102Z,50.37
2022-09-14T23:31:34.910Z,49.77
2022-09-14T23:33:36.738Z,49.95
2022-09-14T23:35:38.426Z,50.24
2022-09-14T23:37:40.062Z,50.39
2022-09-14T23:39:41.887Z,50.41
2022-09-14T23:41:43.624Z,50.29
2022-09-14T23:43:45.481Z,50.42
2022-09-14T23:45:47.578Z,50.20
2022-09-14T23:47:49.375Z,50.45
2022-09-14T23:49:51.157Z,50.33
2022-09-14T23:51:52.934Z,50.34
2022-09-14T23:53:54.706Z,50.45
2022-09-14T23:55:56.438Z,50.33
2022-09-14T23:57:58.181Z,50.82
2022-09-14T23:59:59.866Z,50.92
